Time;durP1;ratioP1;P1;durP2;ratioP2;P2;SDS_P1;SDS_P2;PMS_P1;PMS_P2;Temp;Humidity;BMP_temperature;BMP_pressure;BME280_temperature;BME280_humidity;BME280_pressure;Samples;Min_cycle;Max_cycle;Signal;HPM_P1;HPM_P2
2022/05/17 00:00:42;;;;;;;28.27;11.65;;;;;;;;;;5090929;28;20094;-73
2022/05/17 00:03:08;;;;;;;31.17;11.35;;;;;;;;;;5089136;28;20700;-73
2022/05/17 00:05:34;;;;;;;30.85;10.98;;;;;;;;;;5092285;28;20158;-74
2022/05/17 00:08:00;;;;;;;26.58;10.95;;;;;;;;;;5090902;28;20085;-73
2022/05/17 00:10:26;;;;;;;26.55;12.15;;;;;;;;;;5090287;28;20153;-73
2022/05/17 00:12:53;;;;;;;25.38;10.45;;;;;;;;;;5091443;28;20035;-75
2022/05/17 00:15:19;;;;;;;22.40;10.52;;;;;;;;;;5090383;28;20031;-74
2022/05/17 00:17:46;;;;;;;37.25;11.73;;;;;;;;;;5090158;28;20039;-73
2022/05/17 00:20:13;;;;;;;31.80;10.93;;;;;;;;;;5089802;28;20512;-74
2022/05/17 00:22:39;;;;;;;22.85;10.20;;;;;;;;;;5088858;28;20473;-73
2022/05/17 00:25:06;;;;;;;28.65;10.82;;;;;;;;;;5087232;28;20049;-74
2022/05/17 00:27:32;;;;;;;21.40;9.88;;;;;;;;;;5088331;28;20094;-74
2022/05/17 00:29:58;;;;;;;28.02;10.82;;;;;;;;;;5086733;28;20039;-74
2022/05/17 00:32:24;;;;;;;25.08;10.43;;;;;;;;;;5090671;28;20100;-74
2022/05/17 00:34:50;;;;;;;24.48;10.30;;;;;;;;;;5090919;28;20020;-74
2022/05/17 00:37:16;;;;;;;26.30;10.95;;;;;;;;;;5087612;28;20071;-73
2022/05/17 00:39:42;;;;;;;25.42;9.93;;;;;;;;;;5072271;28;20039;-73
2022/05/17 00:42:08;;;;;;;25.98;11.57;;;;;;;;;;5087317;28;20058;-74
2022/05/17 00:44:43;;;;;;;21.77;10.85;;;;;;;;;;5091055;28;20090;-74
2022/05/17 00:47:12;;;;;;;26.55;10.55;;;;;;;;;;5088890;28;20110;-74
2022/05/17 00:49:49;;;;;;;24.08;11.55;;;;;;;;;;5090127;28;20465;-75
2022/05/17 00:52:27;;;;;;;22.05;10.55;;;;;;;;;;5089246;28;20486;-75
2022/05/17 00:54:56;;;;;;;27.58;11.57;;;;;;;;;;5089775;28;20044;-75
2022/05/17 00:57:28;;;;;;;18.17;10.25;;;;;;;;;;5083979;28;20508;-74
2022/05/17 00:59:55;;;;;;;27.88;11.23;;;;;;;;;;5081790;28;20050;-75
2022/05/17 01:02:21;;;;;;;22.70;11.38;;;;;;;;;;5088908;28;20035;-73
2022/05/17 01:04:47;;;;;;;29.00;11.50;;;;;;;;;;5091811;28;20028;-73
2022/05/17 01:07:21;;;;;;;21.42;11.35;;;;;;;;;;5088949;28;20032;-74
2022/05/17 01:09:49;;;;;;;28.00;11.43;;;;;;;;;;5089391;28;20060;-74
2022/05/17 01:12:15;;;;;;;23.10;11.68;;;;;;;;;;5089048;28;20107;-74
2022/05/17 01:15:00;;;;;;;23.15;11.32;;;;;;;;;;5090245;28;20040;-74
2022/05/17 01:17:27;;;;;;;25.80;10.98;;;;;;;;;;5089231;28;20020;-73
2022/05/17 01:19:53;;;;;;;25.23;11.93;;;;;;;;;;5090084;28;20024;-73
2022/05/17 01:22:19;;;;;;;27.38;11.05;;;;;;;;;;5089088;28;20032;-73
2022/05/17 01:24:45;;;;;;;24.92;12.20;;;;;;;;;;5091236;28;20425;-73
2022/05/17 01:27:15;;;;;;;26.98;12.18;;;;;;;;;;5088280;28;20044;-74
2022/05/17 01:29:43;;;;;;;31.75;13.15;;;;;;;;;;5090371;28;20460;-74
2022/05/17 01:32:09;;;;;;;24.02;12.32;;;;;;;;;;5090176;28;20159;-74
2022/05/17 01:34:36;;;;;;;24.10;12.32;;;;;;;;;;5091904;28;20097;-74
2022/05/17 01:37:02;;;;;;;26.23;12.65;;;;;;;;;;5089313;28;20059;-74
2022/05/17 01:39:28;;;;;;;28.48;12.32;;;;;;;;;;5089606;28;20047;-74
2022/05/17 01:41:54;;;;;;;26.08;11.65;;;;;;;;;;5088546;28;20024;-74
2022/05/17 01:44:20;;;;;;;30.58;11.93;;;;;;;;;;5089933;28;20434;-74
2022/05/17 01:46:46;;;;;;;22.80;11.63;;;;;;;;;;5089925;28;20077;-73
2022/05/17 01:49:12;;;;;;;28.63;12.75;;;;;;;;;;5089083;28;20662;-74
2022/05/17 01:51:38;;;;;;;26.30;12.88;;;;;;;;;;5088936;28;20047;-73
2022/05/17 01:54:04;;;;;;;28.63;12.25;;;;;;;;;;5090250;28;20417;-73
2022/05/17 01:56:30;;;;;;;25.63;13.25;;;;;;;;;;5089091;28;20173;-73
2022/05/17 01:58:57;;;;;;;25.38;13.00;;;;;;;;;;5068023;28;20489;-73
2022/05/17 02:01:23;;;;;;;22.83;11.90;;;;;;;;;;5088018;28;20031;-74
2022/05/17 02:03:49;;;;;;;24.30;11.73;;;;;;;;;;5089873;28;20040;-74
2022/05/17 02:06:15;;;;;;;24.10;11.68;;;;;;;;;;5089859;28;20024;-74
2022/05/17 02:08:41;;;;;;;24.63;12.45;;;;;;;;;;5067613;28;20398;-74
2022/05/17 02:11:07;;;;;;;21.92;12.00;;;;;;;;;;5078099;28;20036;-75
2022/05/17 02:13:33;;;;;;;25.05;13.38;;;;;;;;;;5086854;28;20024;-74
2022/05/17 02:15:59;;;;;;;19.55;11.40;;;;;;;;;;5097546;28;20028;-74
2022/05/17 02:18:25;;;;;;;29.58;12.13;;;;;;;;;;5099730;28;20039;-74
2022/05/17 02:20:51;;;;;;;24.15;12.48;;;;;;;;;;5087325;28;20496;-74
2022/05/17 02:23:17;;;;;;;27.92;12.80;;;;;;;;;;5093133;28;20040;-75
2022/05/17 02:25:43;;;;;;;24.38;12.65;;;;;;;;;;5089273;28;20037;-74
2022/05/17 02:28:10;;;;;;;26.52;13.77;;;;;;;;;;5089103;28;20539;-74
2022/05/17 02:30:36;;;;;;;27.50;13.75;;;;;;;;;;5088723;28;20024;-74
2022/05/17 02:33:04;;;;;;;24.98;13.38;;;;;;;;;;5088393;28;20032;-73
2022/05/17 02:35:30;;;;;;;21.25;12.85;;;;;;;;;;5089306;28;20481;-73
2022/05/17 02:37:56;;;;;;;26.33;12.55;;;;;;;;;;5087850;28;20039;-74
2022/05/17 02:40:22;;;;;;;21.95;11.57;;;;;;;;;;5087296;28;20046;-74
2022/05/17 02:42:48;;;;;;;25.92;12.85;;;;;;;;;;5087361;28;20650;-75
2022/05/17 02:45:14;;;;;;;30.50;14.18;;;;;;;;;;5089271;28;20032;-74
2022/05/17 02:47:40;;;;;;;32.45;13.73;;;;;;;;;;5088657;28;20046;-75
2022/05/17 02:50:09;;;;;;;23.13;12.13;;;;;;;;;;5089069;28;20024;-75
2022/05/17 02:52:35;;;;;;;25.05;13.05;;;;;;;;;;5085936;28;20101;-74
2022/05/17 02:55:01;;;;;;;27.52;11.63;;;;;;;;;;5089370;28;20036;-74
2022/05/17 02:57:27;;;;;;;23.23;11.05;;;;;;;;;;5086814;28;20043;-73
2022/05/17 02:59:53;;;;;;;20.63;9.57;;;;;;;;;;5089432;28;21334;-74
2022/05/17 03:02:19;;;;;;;8.85;6.60;;;;;;;;;;5084436;28;20781;-75
2022/05/17 03:04:46;;;;;;;10.00;6.68;;;;;;;;;;5088962;28;20036;-74
2022/05/17 03:07:12;;;;;;;12.65;7.57;;;;;;;;;;5088793;28;20051;-74
2022/05/17 03:09:38;;;;;;;10.95;6.93;;;;;;;;;;5087549;28;20493;-75
2022/05/17 03:12:05;;;;;;;11.38;7.50;;;;;;;;;;5087442;28;20044;-75
2022/05/17 03:14:31;;;;;;;11.90;7.72;;;;;;;;;;5089558;28;20063;-75
2022/05/17 03:16:57;;;;;;;14.82;8.60;;;;;;;;;;5087869;28;20042;-77
2022/05/17 03:19:24;;;;;;;17.75;8.93;;;;;;;;;;5088354;28;20107;-73
2022/05/17 03:21:51;;;;;;;20.80;10.75;;;;;;;;;;5085735;28;20024;-73
2022/05/17 03:24:17;;;;;;;22.88;12.45;;;;;;;;;;5087743;28;20036;-74
2022/05/17 03:26:43;;;;;;;20.95;11.77;;;;;;;;;;5078582;28;20035;-73
2022/05/17 03:29:09;;;;;;;24.23;12.30;;;;;;;;;;5089483;28;20036;-73
2022/05/17 03:31:36;;;;;;;29.77;14.38;;;;;;;;;;5088055;28;20465;-73
2022/05/17 03:34:02;;;;;;;19.40;12.00;;;;;;;;;;5085567;28;20111;-73
2022/05/17 03:36:28;;;;;;;25.70;11.75;;;;;;;;;;5087882;28;20032;-73
2022/05/17 03:38:54;;;;;;;22.40;12.75;;;;;;;;;;5087643;28;20406;-74
2022/05/17 03:41:20;;;;;;;26.98;14.07;;;;;;;;;;5086695;28;20111;-73
2022/05/17 03:43:47;;;;;;;23.38;13.70;;;;;;;;;;5086274;28;20308;-73
2022/05/17 03:46:13;;;;;;;20.35;11.60;;;;;;;;;;5086616;28;20028;-74
2022/05/17 03:48:39;;;;;;;20.33;10.57;;;;;;;;;;5088911;28;20036;-74
2022/05/17 03:51:15;;;;;;;20.98;11.00;;;;;;;;;;5088226;28;20422;-74
2022/05/17 03:53:41;;;;;;;20.92;12.40;;;;;;;;;;5083073;28;20037;-73
2022/05/17 03:56:08;;;;;;;21.58;11.60;;;;;;;;;;5087097;28;20136;-75
2022/05/17 03:58:34;;;;;;;22.80;13.55;;;;;;;;;;5089100;28;20020;-73
2022/05/17 04:01:00;;;;;;;19.90;10.88;;;;;;;;;;5085172;28;20396;-73
2022/05/17 04:03:26;;;;;;;28.52;13.43;;;;;;;;;;5087052;28;20062;-73
2022/05/17 04:05:52;;;;;;;27.83;14.60;;;;;;;;;;5088566;28;20059;-75
2022/05/17 04:08:18;;;;;;;22.33;14.00;;;;;;;;;;5072641;28;20052;-74
2022/05/17 04:10:44;;;;;;;29.58;16.00;;;;;;;;;;5089006;28;20027;-74
2022/05/17 04:13:10;;;;;;;28.73;16.05;;;;;;;;;;5088276;28;20066;-75
2022/05/17 04:15:36;;;;;;;31.90;15.27;;;;;;;;;;5088018;28;20099;-74
2022/05/17 04:18:02;;;;;;;34.03;16.85;;;;;;;;;;5088357;28;20052;-74
2022/05/17 04:20:29;;;;;;;35.42;15.55;;;;;;;;;;5088605;28;20041;-74
2022/05/17 04:22:55;;;;;;;29.48;16.75;;;;;;;;;;5089767;28;20457;-74
2022/05/17 04:25:23;;;;;;;30.30;16.67;;;;;;;;;;5092744;28;20051;-74
2022/05/17 04:27:52;;;;;;;29.42;15.65;;;;;;;;;;5074677;28;20032;-74
2022/05/17 04:30:18;;;;;;;33.53;16.48;;;;;;;;;;5084845;28;20036;-74
2022/05/17 04:32:44;;;;;;;37.78;14.85;;;;;;;;;;5088356;28;20028;-74
2022/05/17 04:35:11;;;;;;;30.13;15.50;;;;;;;;;;5091839;28;20028;-73
2022/05/17 04:37:37;;;;;;;31.65;14.63;;;;;;;;;;5078147;28;20037;-73
2022/05/17 04:40:11;;;;;;;26.65;13.60;;;;;;;;;;5076214;28;20130;-73
2022/05/17 04:42:37;;;;;;;26.55;13.65;;;;;;;;;;5080776;28;20037;-73
2022/05/17 04:45:04;;;;;;;28.60;13.50;;;;;;;;;;5085511;28;20051;-74
2022/05/17 04:47:31;;;;;;;26.05;13.48;;;;;;;;;;5088368;28;20070;-73
2022/05/17 04:49:57;;;;;;;22.75;12.50;;;;;;;;;;5086007;28;20024;-74
2022/05/17 04:52:23;;;;;;;21.75;12.63;;;;;;;;;;5088676;28;20166;-73
2022/05/17 04:54:49;;;;;;;29.20;12.98;;;;;;;;;;5086671;28;20024;-73
2022/05/17 04:57:15;;;;;;;21.73;13.32;;;;;;;;;;5089550;28;20740;-74
2022/05/17 04:59:42;;;;;;;31.70;14.18;;;;;;;;;;5087619;28;20028;-72
2022/05/17 05:02:08;;;;;;;27.25;13.23;;;;;;;;;;5072071;28;20051;-73
2022/05/17 05:04:35;;;;;;;25.77;14.30;;;;;;;;;;5089863;28;20047;-72
2022/05/17 05:07:01;;;;;;;24.67;13.95;;;;;;;;;;5082918;28;20038;-72
2022/05/17 05:09:27;;;;;;;26.77;14.20;;;;;;;;;;5082904;28;20582;-72
2022/05/17 05:11:53;;;;;;;27.48;14.68;;;;;;;;;;5083611;28;20485;-74
2022/05/17 05:14:19;;;;;;;23.83;13.10;;;;;;;;;;5086604;28;20478;-73
2022/05/17 05:16:45;;;;;;;24.20;12.32;;;;;;;;;;5083976;28;20031;-73
2022/05/17 05:19:11;;;;;;;22.35;12.15;;;;;;;;;;5084176;28;20059;-72
2022/05/17 05:21:37;;;;;;;19.63;11.15;;;;;;;;;;5084578;28;20035;-72
2022/05/17 05:24:04;;;;;;;17.08;10.50;;;;;;;;;;5082517;28;20540;-74
2022/05/17 05:26:32;;;;;;;24.83;10.95;;;;;;;;;;5081330;28;20488;-74
2022/05/17 05:28:58;;;;;;;21.05;10.45;;;;;;;;;;5072434;28;20035;-72
2022/05/17 05:31:24;;;;;;;18.17;9.75;;;;;;;;;;5084543;28;20458;-72
2022/05/17 05:33:50;;;;;;;19.67;9.95;;;;;;;;;;5084614;28;20024;-73
2022/05/17 05:36:16;;;;;;;16.20;9.95;;;;;;;;;;5080030;28;20496;-73
2022/05/17 05:38:42;;;;;;;15.23;8.07;;;;;;;;;;5081007;28;20036;-72
2022/05/17 05:41:15;;;;;;;14.73;8.52;;;;;;;;;;5080371;28;21393;-73
2022/05/17 05:43:41;;;;;;;18.58;8.13;;;;;;;;;;5083152;28;20144;-72
2022/05/17 05:46:07;;;;;;;16.88;8.15;;;;;;;;;;5079035;28;20054;-74
2022/05/17 05:48:33;;;;;;;15.82;8.18;;;;;;;;;;5078296;28;20421;-72
2022/05/17 05:50:59;;;;;;;20.38;8.60;;;;;;;;;;5082027;28;20064;-73
2022/05/17 05:53:25;;;;;;;18.63;7.95;;;;;;;;;;5082394;28;20093;-73
2022/05/17 05:55:57;;;;;;;13.85;7.97;;;;;;;;;;5084487;28;20096;-73
2022/05/17 05:58:23;;;;;;;12.93;7.75;;;;;;;;;;5080418;28;20028;-72
2022/05/17 06:00:49;;;;;;;13.18;7.30;;;;;;;;;;5078230;28;20031;-73
2022/05/17 06:03:15;;;;;;;18.02;8.25;;;;;;;;;;5081086;28;20353;-74
2022/05/17 06:05:42;;;;;;;25.70;8.52;;;;;;;;;;5072755;28;20515;-73
2022/05/17 06:08:12;;;;;;;19.80;7.72;;;;;;;;;;5078903;28;20433;-72
2022/05/17 06:10:38;;;;;;;29.00;7.72;;;;;;;;;;5088598;28;20043;-73
2022/05/17 06:13:04;;;;;;;15.68;6.97;;;;;;;;;;5065664;28;20040;-73
2022/05/17 06:15:30;;;;;;;12.30;5.95;;;;;;;;;;5080347;28;20157;-72
2022/05/17 06:18:00;;;;;;;15.02;5.53;;;;;;;;;;5085590;28;20039;-72
2022/05/17 06:20:26;;;;;;;14.57;5.30;;;;;;;;;;5085377;28;20028;-71
2022/05/17 06:22:52;;;;;;;15.75;5.03;;;;;;;;;;5084887;28;20023;-70
2022/05/17 06:25:19;;;;;;;12.98;4.75;;;;;;;;;;5084697;28;20031;-72
2022/05/17 06:27:45;;;;;;;28.17;5.65;;;;;;;;;;5082082;28;20031;-72
2022/05/17 06:30:12;;;;;;;16.85;5.45;;;;;;;;;;5072794;28;20031;-72
2022/05/17 06:32:38;;;;;;;14.05;5.38;;;;;;;;;;5082523;28;20031;-71
2022/05/17 06:35:04;;;;;;;14.95;5.18;;;;;;;;;;5075982;28;20108;-72
2022/05/17 06:37:30;;;;;;;13.32;5.13;;;;;;;;;;5078221;28;20012;-73
2022/05/17 06:39:56;;;;;;;11.82;5.68;;;;;;;;;;5077725;28;20023;-74
2022/05/17 06:42:23;;;;;;;13.35;5.50;;;;;;;;;;5079481;28;20040;-73
2022/05/17 06:44:49;;;;;;;13.25;5.18;;;;;;;;;;5077921;28;20332;-74
2022/05/17 06:47:15;;;;;;;14.90;4.78;;;;;;;;;;5084485;28;20485;-72
2022/05/17 06:49:41;;;;;;;10.77;4.60;;;;;;;;;;5081822;28;20139;-73
2022/05/17 06:52:08;;;;;;;15.32;5.43;;;;;;;;;;5085871;28;20138;-72
2022/05/17 06:54:35;;;;;;;13.23;5.45;;;;;;;;;;5080473;28;20036;-72
2022/05/17 06:57:06;;;;;;;14.48;6.28;;;;;;;;;;5085446;28;20023;-73
2022/05/17 06:59:32;;;;;;;13.48;6.22;;;;;;;;;;5088690;28;20032;-72
2022/05/17 07:01:59;;;;;;;12.05;5.65;;;;;;;;;;5067931;28;20131;-72
2022/05/17 07:04:26;;;;;;;16.05;6.05;;;;;;;;;;5096388;28;20024;-73
2022/05/17 07:06:52;;;;;;;15.43;6.63;;;;;;;;;;5092057;28;20078;-73
2022/05/17 07:09:22;;;;;;;19.15;6.47;;;;;;;;;;5069333;28;20044;-73
2022/05/17 07:14:32;;;;;;;16.50;7.13;;;;;;;;;;5081792;28;20129;-72
2022/05/17 07:16:58;;;;;;;15.07;6.90;;;;;;;;;;5094824;28;20024;-73
2022/05/17 07:19:24;;;;;;;15.85;6.47;;;;;;;;;;5082196;28;20021;-73
2022/05/17 07:21:50;;;;;;;12.65;6.22;;;;;;;;;;5091897;28;20079;-72
2022/05/17 07:24:19;;;;;;;15.23;5.28;;;;;;;;;;5087042;28;20032;-73
2022/05/17 07:26:45;;;;;;;21.25;5.10;;;;;;;;;;5082950;28;20437;-73
2022/05/17 07:29:11;;;;;;;17.45;4.85;;;;;;;;;;5078435;28;20036;-73
2022/05/17 07:31:37;;;;;;;15.00;5.07;;;;;;;;;;5085739;28;20054;-72
2022/05/17 07:34:03;;;;;;;12.05;5.72;;;;;;;;;;5086650;28;20071;-73
2022/05/17 07:36:29;;;;;;;16.45;4.85;;;;;;;;;;5086855;28;20038;-73
2022/05/17 07:38:57;;;;;;;14.32;5.30;;;;;;;;;;5094080;28;20612;-75
2022/05/17 07:41:23;;;;;;;16.52;5.45;;;;;;;;;;5081219;28;20039;-74
2022/05/17 07:43:49;;;;;;;16.48;5.80;;;;;;;;;;5084982;28;20028;-73
2022/05/17 07:46:15;;;;;;;22.33;5.88;;;;;;;;;;5082051;28;20474;-73
2022/05/17 07:48:41;;;;;;;33.63;6.78;;;;;;;;;;5070500;28;20047;-74
2022/05/17 07:51:07;;;;;;;19.65;5.70;;;;;;;;;;5084443;28;20064;-75
2022/05/17 07:53:33;;;;;;;23.63;5.70;;;;;;;;;;5086007;28;20151;-74
2022/05/17 07:56:00;;;;;;;13.50;6.32;;;;;;;;;;5088449;28;20571;-72
2022/05/17 07:58:26;;;;;;;20.00;6.18;;;;;;;;;;5088192;28;20472;-76
2022/05/17 08:00:53;;;;;;;14.85;5.45;;;;;;;;;;5093530;28;20020;-74
2022/05/17 08:03:19;;;;;;;26.00;6.03;;;;;;;;;;5087424;28;20515;-73
2022/05/17 08:05:45;;;;;;;18.10;5.45;;;;;;;;;;5097676;28;20031;-74
2022/05/17 08:08:12;;;;;;;18.08;7.80;;;;;;;;;;5091769;28;20038;-76
2022/05/17 08:10:38;;;;;;;28.65;6.20;;;;;;;;;;5084550;28;20056;-74
2022/05/17 08:13:04;;;;;;;27.73;6.20;;;;;;;;;;5094980;28;20075;-75
2022/05/17 08:15:30;;;;;;;16.17;5.07;;;;;;;;;;5088470;28;20025;-75
2022/05/17 08:17:57;;;;;;;14.65;4.38;;;;;;;;;;5099423;28;20027;-77
2022/05/17 08:20:23;;;;;;;9.95;4.68;;;;;;;;;;5086460;28;20075;-74
2022/05/17 08:22:49;;;;;;;11.88;4.80;;;;;;;;;;5086957;28;20064;-75
2022/05/17 08:28:03;;;;;;;11.57;4.13;;;;;;;;;;5105565;28;20545;-73
2022/05/17 08:30:29;;;;;;;19.48;4.40;;;;;;;;;;5082673;28;20135;-75
2022/05/17 08:35:58;;;;;;;11.18;4.95;;;;;;;;;;5085661;28;20082;-75
2022/05/17 08:38:28;;;;;;;11.48;4.18;;;;;;;;;;5089156;28;20024;-73
2022/05/17 08:40:58;;;;;;;14.73;4.30;;;;;;;;;;5086553;28;20028;-74
2022/05/17 08:43:30;;;;;;;16.67;4.67;;;;;;;;;;5086982;28;20028;-75
2022/05/17 08:45:59;;;;;;;12.15;4.55;;;;;;;;;;5083440;28;20294;-74
2022/05/17 08:48:29;;;;;;;10.43;4.45;;;;;;;;;;5090079;28;20039;-73
2022/05/17 08:50:55;;;;;;;12.15;4.30;;;;;;;;;;5084807;28;20024;-74
2022/05/17 08:53:22;;;;;;;15.38;4.03;;;;;;;;;;5085334;28;20050;-74
2022/05/17 08:55:51;;;;;;;10.13;4.35;;;;;;;;;;5086299;28;20729;-77
2022/05/17 08:58:20;;;;;;;8.85;3.67;;;;;;;;;;5088342;28;20031;-77
2022/05/17 09:00:48;;;;;;;11.27;3.90;;;;;;;;;;5091232;28;20035;-74
2022/05/17 09:03:32;;;;;;;8.95;3.33;;;;;;;;;;5091235;28;20039;-80
2022/05/17 09:06:04;;;;;;;19.70;3.90;;;;;;;;;;5084376;28;20243;-80
2022/05/17 09:08:41;;;;;;;9.15;2.92;;;;;;;;;;5086333;28;20044;-77
2022/05/17 09:11:25;;;;;;;8.38;3.00;;;;;;;;;;5089168;28;20067;-75
2022/05/17 09:13:52;;;;;;;8.75;2.88;;;;;;;;;;5073925;28;20037;-79
2022/05/17 09:16:21;;;;;;;8.60;3.15;;;;;;;;;;5080302;28;20082;-76
2022/05/17 09:18:48;;;;;;;15.18;3.50;;;;;;;;;;5088056;28;20500;-75
2022/05/17 09:21:27;;;;;;;9.35;3.70;;;;;;;;;;5085381;28;20031;-78
2022/05/17 09:23:53;;;;;;;13.48;4.03;;;;;;;;;;5090740;28;20059;-74
2022/05/17 09:26:20;;;;;;;8.90;3.22;;;;;;;;;;5085303;28;20035;-76
2022/05/17 09:28:49;;;;;;;16.73;3.92;;;;;;;;;;5089357;28;20491;-78
2022/05/17 09:31:24;;;;;;;13.75;3.15;;;;;;;;;;5080377;28;20111;-77
2022/05/17 09:33:50;;;;;;;8.10;3.13;;;;;;;;;;5090562;28;20127;-77
2022/05/17 09:36:18;;;;;;;7.63;2.83;;;;;;;;;;5088856;28;20040;-78
2022/05/17 09:38:44;;;;;;;8.35;2.95;;;;;;;;;;5085606;28;20119;-76
2022/05/17 09:41:12;;;;;;;13.68;3.40;;;;;;;;;;5081909;28;20056;-77
2022/05/17 09:43:51;;;;;;;11.38;3.78;;;;;;;;;;5083533;28;20063;-76
2022/05/17 09:46:18;;;;;;;7.65;3.15;;;;;;;;;;5084042;28;20032;-78
2022/05/17 09:54:44;;;;;;;12.23;3.58;;;;;;;;;;5081067;28;20050;-75
2022/05/17 09:57:18;;;;;;;7.15;3.35;;;;;;;;;;5080359;28;20108;-76
2022/05/17 09:59:47;;;;;;;10.73;3.53;;;;;;;;;;5086770;28;20028;-73
2022/05/17 10:02:28;;;;;;;6.85;3.28;;;;;;;;;;5095480;28;20089;-77
2022/05/17 10:04:55;;;;;;;9.35;3.78;;;;;;;;;;5084562;28;20050;-74
2022/05/17 10:07:23;;;;;;;8.93;3.35;;;;;;;;;;5089513;28;20024;-79
2022/05/17 10:09:49;;;;;;;8.23;3.03;;;;;;;;;;5083747;28;20041;-76
2022/05/17 10:12:27;;;;;;;6.55;3.30;;;;;;;;;;5081488;28;20024;-77
2022/05/17 10:14:55;;;;;;;12.02;3.65;;;;;;;;;;5083355;28;20043;-78
2022/05/17 10:17:24;;;;;;;9.13;3.63;;;;;;;;;;5079400;28;20089;-76
2022/05/17 10:19:53;;;;;;;7.70;3.38;;;;;;;;;;5079930;28;20104;-75
2022/05/17 10:22:22;;;;;;;8.60;3.67;;;;;;;;;;5085955;28;20051;-76
2022/05/17 10:25:07;;;;;;;9.40;3.35;;;;;;;;;;5078659;28;20505;-76
2022/05/17 10:27:40;;;;;;;11.93;3.97;;;;;;;;;;5083043;28;20028;-77
2022/05/17 10:30:10;;;;;;;6.25;3.80;;;;;;;;;;5081817;28;20028;-75
2022/05/17 10:32:39;;;;;;;7.93;4.28;;;;;;;;;;5083957;28;20043;-79
2022/05/17 10:35:24;;;;;;;11.25;4.15;;;;;;;;;;5080502;28;20085;-74
2022/05/17 10:38:03;;;;;;;7.95;4.03;;;;;;;;;;5087219;28;20023;-75
2022/05/17 10:40:31;;;;;;;10.52;4.18;;;;;;;;;;5085238;28;20024;-76
2022/05/17 10:42:57;;;;;;;9.57;3.75;;;;;;;;;;5077995;28;20055;-76
2022/05/17 10:45:35;;;;;;;8.98;3.90;;;;;;;;;;5088295;28;20027;-75
2022/05/17 10:48:09;;;;;;;7.35;2.78;;;;;;;;;;5074856;28;20067;-76
2022/05/17 10:50:46;;;;;;;16.55;2.72;;;;;;;;;;5081492;28;20040;-76
2022/05/17 10:53:21;;;;;;;14.32;3.75;;;;;;;;;;5079671;28;20036;-74
2022/05/17 10:55:51;;;;;;;7.88;2.50;;;;;;;;;;5085445;28;20029;-76
2022/05/17 10:58:24;;;;;;;10.18;2.30;;;;;;;;;;5083110;28;20028;-74
2022/05/17 11:01:05;;;;;;;26.38;2.90;;;;;;;;;;5085495;28;20032;-76
2022/05/17 11:03:40;;;;;;;11.98;2.90;;;;;;;;;;5082604;28;20067;-75
2022/05/17 11:06:06;;;;;;;7.10;2.30;;;;;;;;;;5073623;28;20028;-77
2022/05/17 11:08:40;;;;;;;13.13;3.08;;;;;;;;;;5081924;28;20032;-66
2022/05/17 11:11:25;;;;;;;9.48;2.90;;;;;;;;;;5084691;28;20106;-67
2022/05/17 11:14:04;;;;;;;11.10;3.72;;;;;;;;;;5085056;28;20066;-66
2022/05/17 11:16:30;;;;;;;11.87;3.57;;;;;;;;;;5078579;28;20024;-66
2022/05/17 11:18:56;;;;;;;9.55;3.42;;;;;;;;;;5080432;28;20062;-66
2022/05/17 11:21:26;;;;;;;6.35;2.95;;;;;;;;;;5079362;28;20454;-66
2022/05/17 11:23:56;;;;;;;10.55;3.33;;;;;;;;;;5077196;28;20029;-66
2022/05/17 11:26:22;;;;;;;;;;;;;;;;;;5076998;28;20029;-66
2022/05/17 11:28:51;;;;;;;8.00;3.28;;;;;;;;;;5080693;28;19912;-65
2022/05/17 11:31:38;;;;;;;14.07;3.15;;;;;;;;;;5078511;28;20036;-66
2022/05/17 11:34:22;;;;;;;9.43;4.18;;;;;;;;;;5041560;28;20169;-65
2022/05/17 11:36:49;;;;;;;9.88;3.10;;;;;;;;;;5084102;28;20432;-66
2022/05/17 11:39:41;;;;;;;12.82;3.88;;;;;;;;;;5081186;28;20028;-65
2022/05/17 11:42:07;;;;;;;12.95;2.88;;;;;;;;;;5083439;28;20024;-66
2022/05/17 11:44:44;;;;;;;8.63;3.33;;;;;;;;;;5085834;28;20660;-65
2022/05/17 11:47:29;;;;;;;8.35;2.72;;;;;;;;;;5077345;28;20034;-65
2022/05/17 11:50:14;;;;;;;7.75;3.33;;;;;;;;;;5085859;28;20054;-65
2022/05/17 11:52:41;;;;;;;18.17;3.70;;;;;;;;;;5091166;28;20032;-66
2022/05/17 11:55:08;;;;;;;10.88;3.40;;;;;;;;;;5091566;28;20488;-66
2022/05/17 11:57:37;;;;;;;11.27;3.70;;;;;;;;;;5090879;28;20397;-67
2022/05/17 12:00:27;;;;;;;12.68;4.28;;;;;;;;;;5091718;28;20032;-66
2022/05/17 12:03:01;;;;;;;10.10;4.25;;;;;;;;;;5080682;28;20120;-66
2022/05/17 12:05:53;;;;;;;11.98;4.38;;;;;;;;;;5091184;28;20020;-65
2022/05/17 12:08:28;;;;;;;9.93;4.50;;;;;;;;;;5085329;28;20031;-66
2022/05/17 12:11:05;;;;;;;9.00;3.80;;;;;;;;;;5086630;28;20028;-67
2022/05/17 12:13:32;;;;;;;16.15;5.22;;;;;;;;;;5082723;28;20037;-66
2022/05/17 12:15:58;;;;;;;13.25;4.50;;;;;;;;;;5082936;28;20031;-65
2022/05/17 12:18:32;;;;;;;12.70;4.28;;;;;;;;;;5084502;28;20069;-67
2022/05/17 12:21:04;;;;;;;10.70;4.20;;;;;;;;;;5084735;28;20031;-67
2022/05/17 12:23:34;;;;;;;11.63;4.63;;;;;;;;;;5084724;28;20072;-66
2022/05/17 12:26:07;;;;;;;14.98;5.43;;;;;;;;;;5082965;28;20162;-66
2022/05/17 12:28:36;;;;;;;13.57;5.88;;;;;;;;;;5085106;28;20032;-68
2022/05/17 12:31:06;;;;;;;57.65;8.00;;;;;;;;;;5083426;28;20154;-66
2022/05/17 12:33:47;;;;;;;14.38;5.47;;;;;;;;;;5081322;28;20425;-66
2022/05/17 12:36:13;;;;;;;;;;;;;;;;;;5084470;28;20079;-67
2022/05/17 12:44:20;;;;;;;15.90;6.20;;;;;;;;;;5082540;28;20078;-66
2022/05/17 12:46:48;;;;;;;11.85;6.45;;;;;;;;;;5085045;28;20024;-66
2022/05/17 12:49:20;;;;;;;11.27;5.78;;;;;;;;;;5084082;28;20076;-67
2022/05/17 12:51:49;;;;;;;21.30;5.95;;;;;;;;;;5082617;28;20126;-67
2022/05/17 12:54:18;;;;;;;18.00;6.30;;;;;;;;;;5081556;28;20061;-66
2022/05/17 12:56:47;;;;;;;13.63;5.55;;;;;;;;;;5077446;28;20115;-67
2022/05/17 12:59:13;;;;;;;17.15;7.00;;;;;;;;;;5083858;28;20028;-66
2022/05/17 13:01:41;;;;;;;14.05;6.95;;;;;;;;;;5082413;28;20651;-67
2022/05/17 13:04:12;;;;;;;15.95;7.65;;;;;;;;;;5079917;28;20033;-68
2022/05/17 13:06:38;;;;;;;12.57;6.63;;;;;;;;;;5081968;28;20058;-66
2022/05/17 13:09:06;;;;;;;13.73;5.60;;;;;;;;;;5081086;28;20485;-66
2022/05/17 13:11:32;;;;;;;15.80;6.32;;;;;;;;;;5081341;28;20043;-66
2022/05/17 13:13:59;;;;;;;13.65;6.18;;;;;;;;;;5081539;28;20051;-66
2022/05/17 13:16:28;;;;;;;18.77;6.63;;;;;;;;;;5078965;28;20020;-66
2022/05/17 13:18:55;;;;;;;20.65;6.38;;;;;;;;;;5077166;28;20036;-66
2022/05/17 13:21:23;;;;;;;15.63;6.15;;;;;;;;;;5084838;28;20028;-66
2022/05/17 13:23:51;;;;;;;15.63;6.47;;;;;;;;;;5081186;28;20032;-67
2022/05/17 13:26:27;;;;;;;19.13;6.18;;;;;;;;;;5087902;28;20150;-67
2022/05/17 13:28:53;;;;;;;11.38;5.53;;;;;;;;;;5081231;28;20135;-67
2022/05/17 13:31:21;;;;;;;13.75;6.28;;;;;;;;;;5082716;28;20489;-67
2022/05/17 13:33:55;;;;;;;13.00;5.68;;;;;;;;;;5082989;28;20027;-67
2022/05/17 13:36:33;;;;;;;15.95;6.05;;;;;;;;;;5081099;28;20556;-68
2022/05/17 13:38:59;;;;;;;14.15;5.95;;;;;;;;;;5080831;28;20097;-68
2022/05/17 13:41:38;;;;;;;11.43;5.65;;;;;;;;;;5079414;28;20021;-67
2022/05/17 13:44:04;;;;;;;12.48;5.68;;;;;;;;;;5085427;28;20032;-68
2022/05/17 13:46:35;;;;;;;11.55;5.30;;;;;;;;;;5082473;28;20093;-67
2022/05/17 13:49:20;;;;;;;13.38;5.55;;;;;;;;;;5081950;28;20077;-68
2022/05/17 13:51:55;;;;;;;14.48;5.60;;;;;;;;;;5086663;28;20035;-67
2022/05/17 13:54:39;;;;;;;18.75;5.32;;;;;;;;;;5080724;28;20034;-68
2022/05/17 13:57:18;;;;;;;11.07;5.60;;;;;;;;;;5083619;28;20106;-68
2022/05/17 13:59:50;;;;;;;14.48;5.45;;;;;;;;;;5082752;28;20020;-68
2022/05/17 14:02:30;;;;;;;14.10;5.30;;;;;;;;;;5083584;28;20043;-68
2022/05/17 14:05:06;;;;;;;10.98;5.30;;;;;;;;;;5088292;28;20052;-68
2022/05/17 14:07:34;;;;;;;12.88;5.60;;;;;;;;;;5082741;28;20023;-67
2022/05/17 14:13:06;;;;;;;14.80;6.32;;;;;;;;;;5087472;28;20113;-69
2022/05/17 14:15:32;;;;;;;8.95;5.38;;;;;;;;;;5086788;28;20032;-68
2022/05/17 14:17:58;;;;;;;13.65;6.05;;;;;;;;;;5079076;28;20051;-68
2022/05/17 14:20:24;;;;;;;18.02;6.43;;;;;;;;;;5083349;28;20031;-68
2022/05/17 14:22:53;;;;;;;11.35;5.63;;;;;;;;;;5091796;28;20036;-68
2022/05/17 14:25:19;;;;;;;15.73;6.38;;;;;;;;;;5085080;28;20031;-69
2022/05/17 14:27:45;;;;;;;13.55;6.18;;;;;;;;;;5077768;28;20118;-68
2022/05/17 14:30:12;;;;;;;14.38;6.65;;;;;;;;;;5081643;28;20145;-68
2022/05/17 14:32:38;;;;;;;15.05;5.70;;;;;;;;;;5077817;28;20028;-68
2022/05/17 14:35:04;;;;;;;14.95;6.82;;;;;;;;;;5078843;28;20061;-68
2022/05/17 14:37:30;;;;;;;12.82;7.70;;;;;;;;;;5079873;28;20069;-68
2022/05/17 14:39:57;;;;;;;13.85;7.82;;;;;;;;;;5080529;28;20504;-68
2022/05/17 14:42:23;;;;;;;16.30;7.90;;;;;;;;;;5081725;28;20051;-69
2022/05/17 14:44:49;;;;;;;13.70;7.32;;;;;;;;;;5080460;28;20081;-68
2022/05/17 14:47:20;;;;;;;12.32;7.85;;;;;;;;;;5074224;28;20027;-68
2022/05/17 14:49:51;;;;;;;17.25;6.85;;;;;;;;;;5083009;28;20073;-68
2022/05/17 14:52:17;;;;;;;12.02;7.20;;;;;;;;;;5079908;28;20508;-68
2022/05/17 14:54:43;;;;;;;17.20;7.93;;;;;;;;;;5080821;28;20089;-67
2022/05/17 14:57:09;;;;;;;13.18;7.63;;;;;;;;;;5084604;28;20369;-69
2022/05/17 14:59:35;;;;;;;20.85;11.65;;;;;;;;;;5082373;28;20016;-68